Time;durP1;ratioP1;P1;durP2;ratioP2;P2;SDS_P1;SDS_P2;PMS_P1;PMS_P2;Temp;Humidity;BMP_temperature;BMP_pressure;BME280_temperature;BME280_humidity;BME280_pressure;Samples;Min_cycle;Max_cycle;Signal;HPM_P1;HPM_P2
2023/03/13 00:01:35;;;;;;;13.00;8.47;;;;;;;3.20;100.00;95726.91;5079572;28;20443;-75
2023/03/13 00:04:02;;;;;;;14.30;10.10;;;;;;;3.15;100.00;95728.88;5056581;28;20459;-75
2023/03/13 00:06:35;;;;;;;12.90;9.20;;;;;;;3.13;100.00;95712.72;5078524;28;20427;-75
2023/03/13 00:09:04;;;;;;;13.83;8.63;;;;;;;3.14;100.00;95722.13;5081597;28;20511;-75
2023/03/13 00:11:31;;;;;;;12.17;8.53;;;;;;;3.18;100.00;95717.84;5067090;28;20509;-75
2023/03/13 00:14:01;;;;;;;14.13;9.30;;;;;;;3.18;100.00;95704.78;5080198;28;20457;-75
2023/03/13 00:16:28;;;;;;;19.03;11.07;;;;;;;3.25;100.00;95713.78;5078319;28;20519;-75
2023/03/13 00:18:56;;;;;;;12.60;8.77;;;;;;;3.22;100.00;95700.53;5080144;28;20998;-75
2023/03/13 00:21:25;;;;;;;21.70;11.63;;;;;;;3.20;100.00;95707.88;5071654;28;20428;-76
2023/03/13 00:23:52;;;;;;;18.23;11.20;;;;;;;3.35;100.00;95712.78;5053625;28;20551;-76
2023/03/13 00:26:21;;;;;;;14.40;10.07;;;;;;;3.18;100.00;95691.72;5085084;28;20419;-76
2023/03/13 00:28:49;;;;;;;18.30;12.13;;;;;;;3.26;100.00;95711.94;5082125;28;20436;-76
2023/03/13 00:31:22;;;;;;;9.97;8.90;;;;;;;3.14;100.00;95699.38;5078353;28;20451;-76
2023/03/13 00:33:51;;;;;;;13.93;10.37;;;;;;;3.08;100.00;95703.19;5077095;28;20452;-76
2023/03/13 00:36:23;;;;;;;9.93;8.07;;;;;;;2.94;100.00;95697.97;5078539;28;20467;-76
2023/03/13 00:38:51;;;;;;;19.03;7.73;;;;;;;2.71;100.00;95667.66;5067213;28;20559;-76
2023/03/13 00:41:21;;;;;;;11.63;8.90;;;;;;;2.78;100.00;95670.63;5067305;28;20860;-76
2023/03/13 00:43:49;;;;;;;17.00;12.20;;;;;;;2.84;100.00;95669.47;5074497;28;20491;-75
2023/03/13 00:46:18;;;;;;;22.60;12.00;;;;;;;2.90;100.00;95670.91;5070409;28;20836;-75
2023/03/13 00:48:46;;;;;;;24.10;12.17;;;;;;;2.79;100.00;95648.66;5072808;28;20478;-76
2023/03/13 00:51:14;;;;;;;17.43;11.33;;;;;;;2.70;100.00;95636.63;5081967;28;20428;-76
2023/03/13 00:53:42;;;;;;;16.50;12.47;;;;;;;2.87;100.00;95660.28;5069865;28;20460;-76
2023/03/13 00:56:11;;;;;;;33.07;15.17;;;;;;;2.91;100.00;95656.00;5070025;28;20440;-76
2023/03/13 00:58:40;;;;;;;19.97;13.13;;;;;;;2.90;100.00;95657.06;5075540;28;20467;-75
2023/03/13 01:01:14;;;;;;;24.00;11.27;;;;;;;2.88;100.00;95656.59;5082726;28;20454;-75
2023/03/13 01:03:44;;;;;;;18.03;12.10;;;;;;;2.88;100.00;95654.75;5074914;28;20462;-76
2023/03/13 01:06:14;;;;;;;18.63;11.63;;;;;;;3.07;100.00;95661.66;5060892;28;20437;-76
2023/03/13 01:08:41;;;;;;;26.10;10.33;;;;;;;2.86;100.00;95646.44;5100710;28;20900;-75
2023/03/13 01:11:10;;;;;;;15.13;11.07;;;;;;;2.89;100.00;95665.97;5066648;28;20493;-76
2023/03/13 01:13:37;;;;;;;22.00;12.60;;;;;;;2.62;100.00;95636.25;5066948;28;20462;-75
2023/03/13 01:16:06;;;;;;;17.13;12.80;;;;;;;2.81;100.00;95666.69;5093720;28;20434;-77
2023/03/13 01:18:34;;;;;;;20.50;12.73;;;;;;;2.87;100.00;95662.88;5076836;28;20946;-77
2023/03/13 01:21:02;;;;;;;21.83;12.50;;;;;;;3.01;100.00;95653.19;5092841;28;20873;-77
2023/03/13 01:23:29;;;;;;;22.00;11.77;;;;;;;2.96;100.00;95661.91;5082276;28;20448;-77
2023/03/13 01:25:56;;;;;;;16.57;10.67;;;;;;;2.79;100.00;95645.28;5067955;28;20432;-77
2023/03/13 01:28:24;;;;;;;20.27;11.93;;;;;;;2.88;100.00;95657.38;5073389;28;20468;-77
2023/03/13 01:30:51;;;;;;;18.27;11.33;;;;;;;2.86;100.00;95649.06;5073308;28;20835;-77
2023/03/13 01:33:18;;;;;;;16.93;11.67;;;;;;;2.86;100.00;95638.63;5073181;28;20577;-77
2023/03/13 01:35:45;;;;;;;16.70;10.77;;;;;;;2.77;100.00;95621.31;5073296;28;20447;-77
2023/03/13 01:38:13;;;;;;;14.70;11.13;;;;;;;2.53;100.00;95583.19;5073080;28;20440;-77
2023/03/13 01:40:47;;;;;;;15.10;9.70;;;;;;;2.75;100.00;95621.63;5059809;28;20466;-77
2023/03/13 01:43:26;;;;;;;16.20;10.20;;;;;;;2.89;100.00;95634.66;5076509;28;20875;-77
2023/03/13 01:46:14;;;;;;;15.30;10.40;;;;;;;2.75;100.00;95605.97;5093433;28;20427;-77
2023/03/13 01:49:07;;;;;;;13.80;10.30;;;;;;;2.78;100.00;95597.53;5075666;28;20796;-77
2023/03/13 01:52:00;;;;;;;12.07;9.60;;;;;;;2.82;100.00;95629.06;5070775;28;21672;-77
2023/03/13 01:54:33;;;;;;;13.30;10.47;;;;;;;2.78;100.00;95634.09;5093005;28;20442;-77
2023/03/13 01:57:07;;;;;;;13.00;9.07;;;;;;;2.77;100.00;95614.28;5093002;28;20439;-77
2023/03/13 01:59:42;;;;;;;13.60;9.77;;;;;;;2.75;100.00;95594.75;5064225;28;20551;-77
2023/03/13 02:02:10;;;;;;;11.43;8.40;;;;;;;3.04;100.00;95605.59;5072573;28;20450;-77
2023/03/13 02:04:41;;;;;;;12.30;9.80;;;;;;;2.84;100.00;95583.34;5072552;28;21035;-77
2023/03/13 02:07:16;;;;;;;19.03;8.63;;;;;;;2.85;100.00;95584.09;5085709;28;20465;-76
2023/03/13 02:09:49;;;;;;;13.60;9.27;;;;;;;2.77;100.00;95592.63;5085329;28;20439;-76
2023/03/13 02:12:23;;;;;;;14.80;8.40;;;;;;;2.59;100.00;95589.09;5065053;28;21030;-76
2023/03/13 02:14:50;;;;;;;13.13;8.37;;;;;;;2.56;100.00;95590.44;5079278;28;20436;-76
2023/03/13 02:17:19;;;;;;;15.50;9.23;;;;;;;2.62;100.00;95593.72;5065244;28;20447;-76
2023/03/13 02:19:48;;;;;;;17.43;8.77;;;;;;;2.60;100.00;95594.00;5085805;28;20943;-76
2023/03/13 02:22:20;;;;;;;16.83;8.53;;;;;;;2.81;100.00;95617.84;5083250;28;20490;-76
2023/03/13 02:24:59;;;;;;;11.33;8.93;;;;;;;2.89;100.00;95611.16;5062244;28;20447;-76
2023/03/13 02:27:26;;;;;;;10.83;8.10;;;;;;;2.89;100.00;95600.72;5078765;28;20446;-76
2023/03/13 02:29:53;;;;;;;13.17;6.70;;;;;;;2.95;100.00;95604.75;5085041;28;20428;-76
2023/03/13 02:32:21;;;;;;;8.20;4.87;;;;;;;2.54;100.00;95544.84;5085494;28;20455;-76
2023/03/13 02:34:51;;;;;;;7.00;5.20;;;;;;;2.49;100.00;95526.69;5079317;28;20447;-76
2023/03/13 02:37:20;;;;;;;7.37;5.03;;;;;;;3.08;100.00;95600.56;5078447;28;20535;-76
2023/03/13 02:39:49;;;;;;;10.20;4.80;;;;;;;3.08;100.00;95600.56;5049572;28;20497;-76
2023/03/13 02:42:19;;;;;;;5.83;4.87;;;;;;;3.00;100.00;95593.44;5081832;28;20460;-76
2023/03/13 02:44:50;;;;;;;14.27;5.30;;;;;;;2.91;100.00;95588.13;5082136;28;20439;-76
2023/03/13 02:47:19;;;;;;;8.53;5.63;;;;;;;2.92;100.00;95595.66;5074272;28;20434;-76
2023/03/13 02:49:46;;;;;;;6.63;4.30;;;;;;;2.75;100.00;95568.66;5080336;28;20455;-75
2023/03/13 02:52:15;;;;;;;5.83;4.53;;;;;;;2.94;100.00;95584.94;5085242;28;20543;-76
2023/03/13 02:54:46;;;;;;;5.77;4.60;;;;;;;3.03;100.00;95577.94;5066998;28;20493;-76
2023/03/13 02:57:13;;;;;;;7.40;4.23;;;;;;;2.67;100.00;95530.97;5061575;28;20435;-76
2023/03/13 02:59:40;;;;;;;8.40;4.13;;;;;;;2.82;100.00;95546.31;5079044;28;20484;-76
2023/03/13 03:02:06;;;;;;;8.90;5.03;;;;;;;3.04;100.00;95568.25;5068133;28;20474;-76
2023/03/13 03:04:35;;;;;;;8.10;5.57;;;;;;;3.03;100.00;95545.84;5084435;28;20853;-76
2023/03/13 03:07:02;;;;;;;12.33;4.60;;;;;;;3.11;100.00;95550.34;5061297;28;20474;-76
2023/03/13 03:09:29;;;;;;;8.37;5.07;;;;;;;2.97;100.00;95534.75;5078387;28;20502;-76
2023/03/13 03:12:00;;;;;;;5.50;4.13;;;;;;;3.03;100.00;95557.06;5049149;28;20440;-75
2023/03/13 03:14:28;;;;;;;8.40;3.97;;;;;;;2.82;100.00;95530.66;5077757;28;20436;-76
2023/03/13 03:16:55;;;;;;;6.17;4.63;;;;;;;2.92;100.00;95556.50;5084203;28;20440;-76
2023/03/13 03:19:24;;;;;;;11.40;5.23;;;;;;;2.73;100.00;95526.44;5084606;28;20481;-76
2023/03/13 03:21:50;;;;;;;10.43;3.83;;;;;;;2.90;100.00;95553.44;5078667;28;20427;-76
2023/03/13 03:24:18;;;;;;;7.00;3.90;;;;;;;2.78;100.00;95532.28;5077634;28;20437;-76
2023/03/13 03:26:45;;;;;;;6.80;3.90;;;;;;;3.03;100.00;95548.44;5066551;28;20821;-76
2023/03/13 03:29:20;;;;;;;21.57;4.67;;;;;;;2.95;100.00;95535.06;5084564;28;20438;-76
2023/03/13 03:31:49;;;;;;;9.70;4.63;;;;;;;3.11;100.00;95524.25;5080547;28;20435;-75
2023/03/13 03:34:16;;;;;;;5.83;3.20;;;;;;;3.12;100.00;95526.56;5060884;28;20506;-76
2023/03/13 03:36:44;;;;;;;8.43;3.90;;;;;;;3.18;100.00;95508.91;5074377;28;20443;-76
2023/03/13 03:39:11;;;;;;;6.83;4.40;;;;;;;3.35;100.00;95529.16;5045775;28;22330;-76
2023/03/13 03:41:38;;;;;;;6.03;4.63;;;;;;;3.44;100.00;95519.50;5073711;28;20435;-77
2023/03/13 03:44:05;;;;;;;4.83;2.90;;;;;;;3.67;100.00;95551.59;5077387;28;20975;-76
2023/03/13 03:46:58;;;;;;;6.07;3.50;;;;;;;3.70;100.00;95566.66;5074166;28;20468;-76
2023/03/13 03:49:28;;;;;;;7.77;4.13;;;;;;;3.37;100.00;95511.34;5054479;28;20432;-76
2023/03/13 03:51:55;;;;;;;5.90;3.33;;;;;;;3.33;100.00;95516.38;5084153;28;20458;-76
2023/03/13 03:54:28;;;;;;;6.40;3.40;;;;;;;3.53;100.00;95549.84;5070582;28;20494;-76
2023/03/13 03:56:55;;;;;;;8.33;3.40;;;;;;;3.53;100.00;95555.06;5057602;28;20439;-76
2023/03/13 03:59:21;;;;;;;7.00;3.50;;;;;;;3.59;100.00;95526.19;5081511;28;20546;-76
2023/03/13 04:01:55;;;;;;;12.43;4.10;;;;;;;3.65;100.00;95548.50;5073245;28;20459;-76
2023/03/13 04:04:24;;;;;;;11.30;3.77;;;;;;;3.59;100.00;95529.56;5080097;28;20482;-76
2023/03/13 04:06:57;;;;;;;14.53;3.40;;;;;;;3.99;100.00;95529.56;5084229;28;20475;-76
2023/03/13 04:09:26;;;;;;;8.90;4.50;;;;;;;3.72;100.00;95496.56;5083450;28;20443;-75
2023/03/13 04:11:53;;;;;;;11.57;3.63;;;;;;;3.68;100.00;95491.16;5060638;28;20784;-76
2023/03/13 04:14:19;;;;;;;9.40;4.80;;;;;;;3.69;100.00;95489.31;5077357;28;20435;-76
2023/03/13 04:16:46;;;;;;;9.83;4.50;;;;;;;4.11;100.00;95527.91;5084052;28;20473;-76
2023/03/13 04:19:14;;;;;;;11.13;4.03;;;;;;;3.94;100.00;95504.31;5070200;28;20959;-76
2023/03/13 04:21:45;;;;;;;8.03;4.67;;;;;;;4.31;100.00;95544.13;5063797;28;20927;-76
2023/03/13 04:24:15;;;;;;;9.43;4.00;;;;;;;4.40;100.00;95547.50;5076688;28;20504;-76
2023/03/13 04:26:43;;;;;;;5.60;2.97;;;;;;;4.42;100.00;95529.69;5082739;28;20949;-76
2023/03/13 04:29:10;;;;;;;9.90;3.90;;;;;;;4.53;100.00;95551.84;5067253;28;20462;-76
2023/03/13 04:31:55;;;;;;;4.20;2.93;;;;;;;4.57;100.00;95557.25;5081261;28;20767;-76
2023/03/13 04:34:31;;;;;;;10.30;3.40;;;;;;;4.67;100.00;95544.63;5081530;28;21076;-76
2023/03/13 04:37:12;;;;;;;5.73;3.27;;;;;;;4.48;100.00;95517.19;5080927;28;20493;-76
2023/03/13 04:40:01;;;;;;;6.53;3.53;;;;;;;4.36;100.00;95492.41;5064551;28;20523;-76
2023/03/13 04:43:03;;;;;;;5.93;3.00;;;;;;;4.63;100.00;95527.97;5053057;28;20920;-76
2023/03/13 04:45:53;;;;;;;9.03;5.00;;;;;;;4.74;100.00;95538.94;5059187;28;20530;-75
2023/03/13 04:48:39;;;;;;;7.10;3.07;;;;;;;4.56;100.00;95498.13;5073950;28;20440;-76
2023/03/13 04:51:21;;;;;;;9.83;3.20;;;;;;;3.96;100.00;95412.50;5085411;28;20454;-77
2023/03/13 04:53:55;;;;;;;9.93;3.33;;;;;;;4.48;100.00;95480.56;5094034;28;20455;-77
2023/03/13 04:56:54;;;;;;;11.13;4.30;;;;;;;4.74;100.00;95499.66;5083140;28;20439;-77
2023/03/13 04:59:41;;;;;;;9.37;3.70;;;;;;;4.72;100.00;95491.34;5094798;28;20462;-77
2023/03/13 05:02:32;;;;;;;4.80;3.40;;;;;;;4.70;100.00;95483.81;5095177;28;20528;-77
2023/03/13 05:05:06;;;;;;;8.47;3.80;;;;;;;4.77;100.00;95483.31;5089363;28;20447;-77
2023/03/13 05:07:56;;;;;;;12.47;8.77;;;;;;;4.92;100.00;95498.56;5070987;28;20436;-77
2023/03/13 05:10:25;;;;;;;9.60;3.07;;;;;;;4.99;100.00;95501.47;5073942;28;20515;-77
2023/03/13 05:13:15;;;;;;;3.47;2.50;;;;;;;4.78;100.00;95450.06;5049501;28;20452;-77
2023/03/13 05:15:52;;;;;;;3.93;3.13;;;;;;;4.93;100.00;95478.38;5087077;28;20804;-77
2023/03/13 05:18:54;;;;;;;5.97;2.70;;;;;;;4.99;100.00;95480.53;5053999;28;20443;-77
2023/03/13 05:21:44;;;;;;;3.80;2.30;;;;;;;4.87;100.00;95469.91;5068990;28;20497;-77
2023/03/13 05:24:29;;;;;;;7.90;2.73;;;;;;;4.97;100.00;95468.84;5094082;28;20423;-76
2023/03/13 05:27:08;;;;;;;13.97;3.70;;;;;;;4.91;100.00;95465.59;5065635;28;20440;-76
2023/03/13 05:29:53;;;;;;;2.90;2.20;;;;;;;4.95;100.00;95471.75;5072364;28;20410;-76
2023/03/13 05:32:38;;;;;;;10.93;3.50;;;;;;;5.02;100.00;95477.28;5079593;28;20486;-76
2023/03/13 05:35:22;;;;;;;3.93;2.63;;;;;;;4.90;100.00;95464.06;5064970;28;20860;-76
2023/03/13 05:38:04;;;;;;;4.80;3.43;;;;;;;4.94;100.00;95464.19;5056317;28;20954;-76
2023/03/13 05:40:39;;;;;;;6.43;2.27;;;;;;;5.12;100.00;95478.81;5056373;28;20968;-76
2023/03/13 05:43:29;;;;;;;10.00;3.43;;;;;;;5.05;100.00;95468.03;5076461;28;20455;-76
2023/03/13 05:46:20;;;;;;;10.90;3.00;;;;;;;4.93;100.00;95446.94;5071383;28;20793;-76
2023/03/13 05:49:12;;;;;;;8.07;3.13;;;;;;;5.14;100.00;95476.66;5066202;28;20497;-75
2023/03/13 05:52:00;;;;;;;5.07;3.23;;;;;;;5.03;100.00;95457.09;5079777;28;20439;-76
2023/03/13 05:54:30;;;;;;;4.43;2.80;;;;;;;5.04;100.00;95456.78;5084228;28;20447;-76
2023/03/13 05:57:11;;;;;;;9.17;2.90;;;;;;;5.02;100.00;95460.78;5086220;28;20485;-75
2023/03/13 05:59:50;;;;;;;4.70;3.00;;;;;;;5.19;100.00;95468.59;5086290;28;20866;-76
2023/03/13 06:02:35;;;;;;;6.60;3.20;;;;;;;4.99;100.00;95435.22;5084044;28;20524;-76
2023/03/13 06:05:03;;;;;;;5.33;2.57;;;;;;;4.62;100.00;95390.31;5062617;28;20440;-76
2023/03/13 06:07:30;;;;;;;4.87;2.57;;;;;;;5.09;100.00;95448.00;5082606;28;20944;-76
2023/03/13 06:09:57;;;;;;;5.53;2.60;;;;;;;5.06;100.00;95448.59;5085812;28;20469;-76
2023/03/13 06:12:23;;;;;;;6.60;2.90;;;;;;;4.99;100.00;95435.22;5066129;28;20488;-76
2023/03/13 06:14:50;;;;;;;5.27;2.30;;;;;;;4.96;100.00;95438.47;5080780;28;20924;-76
2023/03/13 06:17:49;;;;;;;11.70;3.30;;;;;;;5.07;100.00;95433.66;5079007;28;20436;-76
2023/03/13 06:20:36;;;;;;;2.87;2.67;;;;;;;5.08;100.00;95441.22;5084111;28;20459;-76
2023/03/13 06:23:02;;;;;;;6.23;2.23;;;;;;;5.08;100.00;95429.97;4990627;28;21002;-76
2023/03/13 06:25:29;;;;;;;3.47;2.20;;;;;;;5.18;100.00;95435.63;4975694;28;20431;-76
2023/03/13 06:27:56;;;;;;;4.33;2.00;;;;;;;5.20;100.00;95433.47;5004872;28;20440;-75
2023/03/13 06:30:22;;;;;;;6.37;2.87;;;;;;;5.22;100.00;95438.41;4983989;28;20436;-76
2023/03/13 06:32:49;;;;;;;5.37;2.60;;;;;;;5.29;100.00;95438.69;4990372;28;20459;-76
2023/03/13 06:35:16;;;;;;;4.50;2.53;;;;;;;5.11;100.00;95403.91;4985780;28;20505;-76
2023/03/13 06:37:42;;;;;;;6.30;2.67;;;;;;;5.28;100.00;95408.31;4980728;28;20441;-76
2023/03/13 06:40:10;;;;;;;5.83;2.80;;;;;;;5.21;100.00;95387.88;4994820;28;20494;-76
2023/03/13 06:42:36;;;;;;;5.10;2.77;;;;;;;5.20;100.00;95385.53;4989111;28;20456;-76
2023/03/13 06:45:03;;;;;;;2.80;2.07;;;;;;;5.22;100.00;95394.66;4975302;28;20499;-76
2023/03/13 06:47:31;;;;;;;6.20;2.40;;;;;;;5.21;100.00;95393.09;4994125;28;20471;-76
2023/03/13 06:49:57;;;;;;;3.43;2.40;;;;;;;5.27;100.00;95393.69;4982421;28;20472;-76
2023/03/13 06:52:24;;;;;;;3.70;2.63;;;;;;;5.28;100.00;95403.84;5010419;28;20489;-75
2023/03/13 06:55:07;;;;;;;3.27;2.53;;;;;;;5.10;100.00;95373.56;4983778;28;20432;-76
2023/03/13 06:57:34;;;;;;;4.23;2.93;;;;;;;5.25;100.00;95399.25;5002831;28;20653;-75
2023/03/13 07:00:00;;;;;;;7.63;3.30;;;;;;;5.26;100.00;95400.00;5015500;28;20440;-75
2023/03/13 07:02:27;;;;;;;7.63;3.37;;;;;;;5.19;100.00;95384.00;5072676;28;20451;-75
2023/03/13 07:04:54;;;;;;;4.17;2.63;;;;;;;5.31;100.00;95400.59;5068216;28;20419;-76
2023/03/13 07:07:20;;;;;;;6.17;2.73;;;;;;;5.17;100.00;95375.69;5080067;28;20437;-77
2023/03/13 07:09:57;;;;;;;4.10;3.30;;;;;;;5.17;100.00;95373.06;5079166;28;20822;-76
2023/03/13 07:12:24;;;;;;;5.70;3.17;;;;;;;5.21;100.00;95377.38;5081681;28;20538;-77
2023/03/13 07:14:51;;;;;;;5.60;2.50;;;;;;;5.00;100.00;95342.47;5084841;28;21004;-76
2023/03/13 07:17:17;;;;;;;3.17;2.87;;;;;;;5.08;100.00;95346.16;5054670;28;20429;-76
2023/03/13 07:19:44;;;;;;;4.40;3.03;;;;;;;5.15;100.00;95339.31;5074862;28;20529;-76
2023/03/13 07:22:11;;;;;;;8.90;3.97;;;;;;;5.21;100.00;95338.09;5064366;28;20547;-77
2023/03/13 07:24:37;;;;;;;9.13;4.60;;;;;;;5.31;100.00;95358.66;5067775;28;20448;-77
2023/03/13 07:27:04;;;;;;;7.10;3.83;;;;;;;5.27;100.00;95355.16;5081940;28;20439;-77
2023/03/13 07:29:34;;;;;;;12.93;5.70;;;;;;;5.21;100.00;95348.56;5061335;28;20436;-77
2023/03/13 07:32:00;;;;;;;8.10;4.20;;;;;;;5.13;100.00;95331.03;5080056;28;20428;-76
2023/03/13 07:34:27;;;;;;;14.10;7.13;;;;;;;5.05;100.00;95326.56;5067757;28;20452;-76
2023/03/13 07:36:54;;;;;;;12.93;5.57;;;;;;;5.14;100.00;95347.50;5082602;28;21054;-76
2023/03/13 07:39:20;;;;;;;7.50;4.50;;;;;;;5.14;100.00;95345.66;5060227;28;20541;-77
2023/03/13 07:41:47;;;;;;;8.77;4.60;;;;;;;5.34;100.00;95371.16;5064877;28;20787;-77
2023/03/13 07:44:15;;;;;;;16.70;9.30;;;;;;;5.44;100.00;95377.09;5076691;28;20972;-76
2023/03/13 07:46:42;;;;;;;3.23;2.93;;;;;;;5.50;100.00;95371.38;5078323;28;20941;-77
2023/03/13 07:49:08;;;;;;;3.10;2.80;;;;;;;5.54;100.00;95374.13;5084680;28;20435;-77
2023/03/13 07:51:35;;;;;;;6.67;2.77;;;;;;;5.60;100.00;95370.22;5070743;28;20436;-76
2023/03/13 07:54:10;;;;;;;4.20;2.30;;;;;;;5.39;100.00;95333.50;5065238;28;20443;-76
2023/03/13 07:56:37;;;;;;;4.00;1.97;;;;;;;5.59;100.00;95355.59;5077364;28;20437;-76
2023/03/13 07:59:04;;;;;;;3.30;2.03;;;;;;;5.56;100.00;95343.13;5084749;28;20462;-76
2023/03/13 08:01:31;;;;;;;6.03;2.80;;;;;;;5.60;100.00;95344.78;5084183;28;20502;-76
2023/03/13 08:04:01;;;;;;;4.10;2.07;;;;;;;5.85;100.00;95374.56;5061557;28;20455;-76
2023/03/13 08:06:31;;;;;;;2.93;2.10;;;;;;;5.86;100.00;95378.72;5060503;28;20463;-77
2023/03/13 08:08:59;;;;;;;2.60;2.10;;;;;;;5.89;100.00;95378.09;5064595;28;20812;-77
2023/03/13 08:11:27;;;;;;;5.03;3.20;;;;;;;5.98;100.00;95380.66;5067493;28;20423;-76
2023/03/13 08:13:55;;;;;;;7.57;3.70;;;;;;;5.92;100.00;95345.22;5063146;28;20496;-76
2023/03/13 08:16:25;;;;;;;5.17;2.40;;;;;;;6.01;100.00;95360.88;5077150;28;20531;-76
2023/03/13 08:18:53;;;;;;;5.87;3.00;;;;;;;6.16;100.00;95373.44;5063804;28;20436;-77
2023/03/13 08:21:23;;;;;;;3.80;3.00;;;;;;;6.05;100.00;95344.22;5085304;28;20505;-77
2023/03/13 08:23:55;;;;;;;5.43;2.97;;;;;;;6.19;100.00;95357.81;5053778;28;20487;-77
2023/03/13 08:26:24;;;;;;;6.53;2.03;;;;;;;6.29;100.00;95376.91;5070294;28;20489;-77
2023/03/13 08:28:53;;;;;;;4.90;2.03;;;;;;;6.28;100.00;95373.50;5050375;28;20512;-76
2023/03/13 08:31:23;;;;;;;5.77;2.30;;;;;;;6.11;100.00;95347.38;5084539;28;20416;-76
2023/03/13 08:33:50;;;;;;;3.90;2.27;;;;;;;6.43;100.00;95375.53;5066928;28;20458;-77
2023/03/13 08:36:20;;;;;;;2.83;1.77;;;;;;;6.47;100.00;95383.53;5078128;28;20861;-77
2023/03/13 08:38:47;;;;;;;2.53;2.33;;;;;;;6.41;100.00;95361.97;5068795;28;21039;-76
2023/03/13 08:41:17;;;;;;;2.33;1.97;;;;;;;6.58;100.00;95402.28;5065982;28;20455;-77
2023/03/13 08:43:45;;;;;;;3.60;2.40;;;;;;;6.53;100.00;95387.47;5078164;28;20444;-76
2023/03/13 08:46:12;;;;;;;2.03;1.93;;;;;;;6.53;100.00;95374.34;5082984;28;20518;-77
2023/03/13 08:48:38;;;;;;;1.93;1.83;;;;;;;6.67;100.00;95389.81;5083611;28;20431;-76
2023/03/13 08:51:08;;;;;;;5.47;2.57;;;;;;;6.62;100.00;95385.56;5079403;28;20526;-76
2023/03/13 08:53:37;;;;;;;6.27;2.43;;;;;;;6.50;100.00;95360.00;5077943;28;20490;-77
2023/03/13 08:56:04;;;;;;;2.40;1.83;;;;;;;6.73;100.00;95391.16;5080544;28;20436;-76
2023/03/13 08:58:31;;;;;;;4.80;1.93;;;;;;;6.54;100.00;95349.63;5070094;28;20432;-76
2023/03/13 09:01:06;;;;;;;3.30;1.70;;;;;;;6.88;100.00;95376.66;5071272;28;20542;-76
2023/03/13 09:03:34;;;;;;;6.93;2.97;;;;;;;6.93;100.00;95376.44;5083685;28;20908;-76
2023/03/13 09:06:01;;;;;;;7.57;2.40;;;;;;;6.43;100.00;95299.41;5053430;28;20436;-76
2023/03/13 09:08:29;;;;;;;1.90;1.70;;;;;;;6.95;100.00;95376.91;5071257;28;20456;-76
2023/03/13 09:11:06;;;;;;;4.30;2.53;;;;;;;7.00;100.00;95380.06;5069896;28;20436;-76
2023/03/13 09:13:36;;;;;;;3.63;2.10;;;;;;;7.14;100.00;95373.72;5056737;28;20581;-76
2023/03/13 09:16:18;;;;;;;6.70;1.90;;;;;;;7.27;100.00;95380.53;5069845;28;20428;-76
2023/03/13 09:18:45;;;;;;;3.40;1.87;;;;;;;7.34;100.00;95375.50;5071274;28;20451;-76
2023/03/13 09:21:15;;;;;;;5.83;2.07;;;;;;;6.94;100.00;95304.38;5073448;28;20616;-76
2023/03/13 09:23:43;;;;;;;2.37;1.97;;;;;;;7.32;100.00;95348.75;5073462;28;20819;-76
2023/03/13 09:26:10;;;;;;;4.87;1.73;;;;;;;7.50;100.00;95368.50;5077518;28;20974;-76
2023/03/13 09:28:37;;;;;;;5.70;2.80;;;;;;;7.28;100.00;95327.63;5062412;28;20433;-76
2023/03/13 09:31:13;;;;;;;3.43;1.60;;;;;;;7.60;100.00;95368.03;5072252;28;20447;-76
2023/03/13 09:33:41;;;;;;;8.30;4.27;;;;;;;7.59;100.00;95371.00;5073217;28;20551;-76
2023/03/13 09:36:08;;;;;;;10.53;4.77;;;;;;;7.55;100.00;95375.38;5073094;28;20543;-76
2023/03/13 09:38:36;;;;;;;14.10;5.50;;;;;;;7.49;100.00;95368.84;5073086;28;20444;-76
2023/03/13 09:41:28;;;;;;;7.53;3.90;;;;;;;7.53;100.00;95369.69;5053050;28;20465;-76
2023/03/13 09:44:13;;;;;;;7.33;3.83;;;;;;;7.71;100.00;95386.78;5069765;28;21007;-76
2023/03/13 09:46:56;;;;;;;3.83;2.40;;;;;;;7.47;100.00;95339.44;5084725;28;20441;-76
2023/03/13 09:49:32;;;;;;;3.30;2.67;;;;;;;7.68;100.00;95361.13;5070266;28;20474;-76
2023/03/13 09:52:01;;;;;;;3.53;2.33;;;;;;;7.87;100.00;95371.84;5076178;28;20510;-76
2023/03/13 09:54:37;;;;;;;3.30;1.80;;;;;;;8.04;100.00;95362.16;5076400;28;20441;-76
2023/03/13 09:57:27;;;;;;;5.00;2.07;;;;;;;7.91;100.00;95338.50;5088953;28;20460;-76
2023/03/13 10:00:05;;;;;;;1.60;1.47;;;;;;;8.08;100.00;95342.75;5056219;28;20428;-76
2023/03/13 10:02:35;;;;;;;16.53;8.80;;;;;;;8.27;100.00;95356.03;5073870;28;20880;-76
2023/03/13 10:05:26;;;;;;;5.83;3.57;;;;;;;8.34;100.00;95357.34;5073882;28;20828;-76
2023/03/13 10:08:07;;;;;;;5.00;2.73;;;;;;;8.41;100.00;95352.28;5072572;28;20482;-76
2023/03/13 10:10:43;;;;;;;2.97;2.07;;;;;;;8.42;100.00;95361.75;5072549;28;20447;-76
2023/03/13 10:13:21;;;;;;;5.23;1.87;;;;;;;8.32;100.00;95346.41;5072304;28;21049;-76
2023/03/13 10:15:55;;;;;;;2.50;1.80;;;;;;;8.38;100.00;95350.34;5086749;28;20411;-76
2023/03/13 10:18:23;;;;;;;2.07;1.87;;;;;;;8.35;100.00;95354.41;5076049;28;20439;-76
2023/03/13 10:20:55;;;;;;;1.77;1.67;;;;;;;8.04;100.00;95283.97;5093778;28;20915;-77
2023/03/13 10:23:38;;;;;;;3.47;1.37;;;;;;;8.50;100.00;95352.91;5092561;28;20462;-76
2023/03/13 10:26:09;;;;;;;3.00;1.53;;;;;;;8.52;100.00;95340.94;5092446;28;20481;-76
2023/03/13 10:28:35;;;;;;;1.93;1.70;;;;;;;8.49;100.00;95327.69;5092432;28;20923;-77
2023/03/13 10:31:13;;;;;;;7.10;2.33;;;;;;;8.38;100.00;95308.97;5079490;28;20429;-77
2023/03/13 10:33:41;;;;;;;4.47;1.50;;;;;;;8.48;100.00;95336.69;5078950;28;20456;-77
2023/03/13 10:36:13;;;;;;;6.67;1.90;;;;;;;8.61;100.00;95350.56;5078994;28;20432;-77
2023/03/13 10:38:51;;;;;;;2.10;1.60;;;;;;;8.61;100.00;95350.56;5054860;28;20447;-77
2023/03/13 10:41:25;;;;;;;1.50;1.40;;;;;;;8.68;100.00;95351.53;5051893;28;20452;-77
2023/03/13 10:44:04;;;;;;;3.67;1.80;;;;;;;8.71;100.00;95344.81;5081763;28;20542;-77
2023/03/13 10:46:34;;;;;;;4.20;2.00;;;;;;;8.69;100.00;95345.16;5083795;28;20439;-77
2023/03/13 10:49:03;;;;;;;2.50;1.70;;;;;;;8.70;100.00;95345.94;5078758;28;20851;-76
2023/03/13 10:51:38;;;;;;;4.33;2.67;;;;;;;8.74;100.00;95344.13;5092208;28;20458;-76
2023/03/13 10:54:24;;;;;;;4.27;2.73;;;;;;;8.78;100.00;95337.84;5085151;28;20444;-77
2023/03/13 10:57:08;;;;;;;3.80;2.80;;;;;;;8.81;100.00;95336.41;5074230;28;20527;-76
2023/03/13 10:59:42;;;;;;;4.93;3.63;;;;;;;8.90;100.00;95347.56;5075034;28;20470;-76
2023/03/13 11:02:24;;;;;;;2.77;1.93;;;;;;;8.85;100.00;95340.66;5091684;28;20567;-76
2023/03/13 11:04:54;;;;;;;9.37;5.77;;;;;;;8.75;100.00;95324.59;5074921;28;20535;-76
2023/03/13 11:07:37;;;;;;;5.33;3.77;;;;;;;8.85;100.00;95326.72;5082809;28;20427;-76
2023/03/13 11:10:12;;;;;;;1.63;1.53;;;;;;;9.14;100.00;95336.84;5054850;28;20480;-77
2023/03/13 11:12:45;;;;;;;6.20;4.20;;;;;;;9.18;100.00;95340.31;5071284;28;20795;-77
2023/03/13 11:15:19;;;;;;;1.90;1.80;;;;;;;9.22;100.00;95337.03;5071237;28;20847;-76
2023/03/13 11:18:01;;;;;;;2.93;2.00;;;;;;;9.17;100.00;95309.03;5071233;28;20512;-76
2023/03/13 11:20:31;;;;;;;2.90;1.53;;;;;;;9.29;100.00;95326.63;5071133;28;20957;-76
2023/03/13 11:23:10;;;;;;;3.53;1.40;;;;;;;9.21;100.00;95304.59;5074325;28;20562;-76
2023/03/13 11:26:07;;;;;;;2.27;1.70;;;;;;;9.42;100.00;95328.06;5091387;28;20447;-76
2023/03/13 11:29:16;;;;;;;3.20;1.60;;;;;;;9.43;100.00;95319.03;5091328;28;20446;-76
2023/03/13 11:31:50;;;;;;;3.40;1.40;;;;;;;9.26;100.00;95301.72;5081341;28;20448;-76
2023/03/13 11:34:26;;;;;;;1.73;1.40;;;;;;;9.60;100.00;95321.28;5070759;28;20853;-76
2023/03/13 11:37:01;;;;;;;2.00;1.30;;;;;;;9.67;100.00;95318.81;5072627;28;20782;-76
2023/03/13 11:40:03;;;;;;;2.40;1.53;;;;;;;9.55;100.00;95289.91;5070763;28;20444;-76
2023/03/13 11:43:08;;;;;;;3.50;1.67;;;;;;;9.85;100.00;95313.16;5075009;28;20517;-76
2023/03/13 11:46:06;;;;;;;2.20;2.00;;;;;;;9.94;100.00;95311.06;5076154;28;21023;-76
2023/03/13 11:48:45;;;;;;;1.90;1.53;;;;;;;9.99;100.00;95306.28;5091115;28;20801;-77
2023/03/13 11:51:19;;;;;;;1.20;1.10;;;;;;;9.89;100.00;95267.25;5074237;28;20431;-77
2023/03/13 11:54:10;;;;;;;1.10;1.00;;;;;;;10.30;100.00;95302.78;5077388;28;20462;-77
2023/03/13 11:56:51;;;;;;;2.87;1.40;;;;;;;10.33;100.00;95294.13;5090954;28;20482;-76